sensor_id;sensor_type;location;lat;lon;timestamp;temperature;humidity
52285;DHT22;38238;53.304;6.606;2022-11-14T00:02:21;6.90;99.90
52285;DHT22;38238;53.304;6.606;2022-11-14T00:04:48;7.00;99.90
52285;DHT22;38238;53.304;6.606;2022-11-14T00:07:14;6.90;99.90
52285;DHT22;38238;53.304;6.606;2022-11-14T00:09:40;7.10;99.90
52285;DHT22;38238;53.304;6.606;2022-11-14T00:12:09;7.00;99.90
52285;DHT22;38238;53.304;6.606;2022-11-14T00:14:35;7.00;99.90
52285;DHT22;38238;53.304;6.606;2022-11-14T00:17:01;7.00;99.90
52285;DHT22;38238;53.304;6.606;2022-11-14T00:19:27;7.00;99.90
52285;DHT22;38238;53.304;6.606;2022-11-14T00:21:53;7.00;99.90
52285;DHT22;38238;53.304;6.606;2022-11-14T00:24:19;7.00;99.90
52285;DHT22;38238;53.304;6.606;2022-11-14T00:26:45;7.00;99.90
52285;DHT22;38238;53.304;6.606;2022-11-14T00:29:12;7.00;99.90
52285;DHT22;38238;53.304;6.606;2022-11-14T00:31:38;7.00;99.90
52285;DHT22;38238;53.304;6.606;2022-11-14T00:34:04;7.00;99.90
52285;DHT22;38238;53.304;6.606;2022-11-14T00:36:30;7.00;99.90
52285;DHT22;38238;53.304;6.606;2022-11-14T00:38:56;7.00;99.90
52285;DHT22;38238;53.304;6.606;2022-11-14T00:41:22;7.40;99.90
52285;DHT22;38238;53.304;6.606;2022-11-14T00:43:47;7.10;99.90
52285;DHT22;38238;53.304;6.606;2022-11-14T00:46:13;7.10;99.90
52285;DHT22;38238;53.304;6.606;2022-11-14T00:48:39;7.10;99.90
52285;DHT22;38238;53.304;6.606;2022-11-14T00:51:05;7.10;99.90
52285;DHT22;38238;53.304;6.606;2022-11-14T00:53:31;7.10;99.90
52285;DHT22;38238;53.304;6.606;2022-11-14T00:55:56;7.10;99.90
52285;DHT22;38238;53.304;6.606;2022-11-14T00:58:22;7.10;99.90
52285;DHT22;38238;53.304;6.606;2022-11-14T01:00:48;7.10;99.90
52285;DHT22;38238;53.304;6.606;2022-11-14T01:03:13;7.10;99.90
52285;DHT22;38238;53.304;6.606;2022-11-14T01:05:47;7.10;99.90
52285;DHT22;38238;53.304;6.606;2022-11-14T01:08:14;7.10;99.90
52285;DHT22;38238;53.304;6.606;2022-11-14T01:10:50;7.10;99.90
52285;DHT22;38238;53.304;6.606;2022-11-14T01:13:17;7.10;99.90
52285;DHT22;38238;53.304;6.606;2022-11-14T01:15:45;7.10;99.90
52285;DHT22;38238;53.304;6.606;2022-11-14T01:18:17;7.10;99.90
52285;DHT22;38238;53.304;6.606;2022-11-14T01:20:45;7.10;99.90
52285;DHT22;38238;53.304;6.606;2022-11-14T01:23:12;5.40;99.90
52285;DHT22;38238;53.304;6.606;2022-11-14T01:25:39;7.10;99.90
52285;DHT22;38238;53.304;6.606;2022-11-14T01:28:07;7.10;99.90
52285;DHT22;38238;53.304;6.606;2022-11-14T01:30:33;7.10;99.90
52285;DHT22;38238;53.304;6.606;2022-11-14T01:32:59;7.10;99.90
52285;DHT22;38238;53.304;6.606;2022-11-14T01:35:25;7.10;99.90
52285;DHT22;38238;53.304;6.606;2022-11-14T01:37:51;7.10;99.90
52285;DHT22;38238;53.304;6.606;2022-11-14T01:40:16;7.10;99.90
52285;DHT22;38238;53.304;6.606;2022-11-14T01:48:29;7.00;99.90
52285;DHT22;38238;53.304;6.606;2022-11-14T01:51:02;7.00;99.90
52285;DHT22;38238;53.304;6.606;2022-11-14T01:53:29;7.00;99.90
52285;DHT22;38238;53.304;6.606;2022-11-14T01:55:59;7.00;99.90
52285;DHT22;38238;53.304;6.606;2022-11-14T01:58:28;7.00;99.90
52285;DHT22;38238;53.304;6.606;2022-11-14T02:00:55;7.00;99.90
52285;DHT22;38238;53.304;6.606;2022-11-14T02:03:22;7.00;99.90
52285;DHT22;38238;53.304;6.606;2022-11-14T02:05:47;7.00;99.90
52285;DHT22;38238;53.304;6.606;2022-11-14T02:08:14;7.00;99.90
52285;DHT22;38238;53.304;6.606;2022-11-14T02:10:41;7.00;99.90
52285;DHT22;38238;53.304;6.606;2022-11-14T02:13:06;7.00;99.90
52285;DHT22;38238;53.304;6.606;2022-11-14T02:15:33;7.00;99.90
52285;DHT22;38238;53.304;6.606;2022-11-14T02:18:00;7.00;99.90
52285;DHT22;38238;53.304;6.606;2022-11-14T02:20:28;7.00;99.90
52285;DHT22;38238;53.304;6.606;2022-11-14T02:22:57;7.00;99.90
52285;DHT22;38238;53.304;6.606;2022-11-14T02:25:23;7.00;99.90
52285;DHT22;38238;53.304;6.606;2022-11-14T02:27:48;7.00;99.90
52285;DHT22;38238;53.304;6.606;2022-11-14T02:30:19;7.00;99.90
52285;DHT22;38238;53.304;6.606;2022-11-14T02:32:45;7.00;99.90
52285;DHT22;38238;53.304;6.606;2022-11-14T02:35:11;6.90;99.90
52285;DHT22;38238;53.304;6.606;2022-11-14T02:37:37;7.00;99.90
52285;DHT22;38238;53.304;6.606;2022-11-14T02:40:04;7.40;99.90
52285;DHT22;38238;53.304;6.606;2022-11-14T02:42:29;7.00;99.90
52285;DHT22;38238;53.304;6.606;2022-11-14T02:44:55;6.90;99.90
52285;DHT22;38238;53.304;6.606;2022-11-14T02:47:21;7.00;99.90
52285;DHT22;38238;53.304;6.606;2022-11-14T02:49:49;6.90;99.90
52285;DHT22;38238;53.304;6.606;2022-11-14T02:52:15;6.90;99.90
52285;DHT22;38238;53.304;6.606;2022-11-14T02:54:44;6.90;99.90
52285;DHT22;38238;53.304;6.606;2022-11-14T02:57:12;6.90;99.90
52285;DHT22;38238;53.304;6.606;2022-11-14T02:59:38;6.90;99.90
52285;DHT22;38238;53.304;6.606;2022-11-14T03:02:03;6.90;99.90
52285;DHT22;38238;53.304;6.606;2022-11-14T03:04:29;6.90;99.90
52285;DHT22;38238;53.304;6.606;2022-11-14T03:06:55;6.90;99.90
52285;DHT22;38238;53.304;6.606;2022-11-14T03:09:20;6.90;99.90
52285;DHT22;38238;53.304;6.606;2022-11-14T03:11:46;6.90;99.90
52285;DHT22;38238;53.304;6.606;2022-11-14T03:14:12;6.90;99.90
52285;DHT22;38238;53.304;6.606;2022-11-14T03:16:37;7.00;99.90
52285;DHT22;38238;53.304;6.606;2022-11-14T03:19:03;6.90;99.90
52285;DHT22;38238;53.304;6.606;2022-11-14T03:21:29;7.00;99.90
52285;DHT22;38238;53.304;6.606;2022-11-14T03:23:55;7.00;99.90
52285;DHT22;38238;53.304;6.606;2022-11-14T03:26:20;7.00;99.90
52285;DHT22;38238;53.304;6.606;2022-11-14T03:28:46;7.00;99.90
52285;DHT22;38238;53.304;6.606;2022-11-14T03:31:12;7.00;99.90
52285;DHT22;38238;53.304;6.606;2022-11-14T03:33:38;7.00;99.90
52285;DHT22;38238;53.304;6.606;2022-11-14T03:36:04;7.00;99.90
52285;DHT22;38238;53.304;6.606;2022-11-14T03:38:30;7.00;99.90
52285;DHT22;38238;53.304;6.606;2022-11-14T03:40:57;7.10;99.90
52285;DHT22;38238;53.304;6.606;2022-11-14T03:43:25;7.00;99.90
52285;DHT22;38238;53.304;6.606;2022-11-14T03:45:51;7.00;99.90
52285;DHT22;38238;53.304;6.606;2022-11-14T03:48:16;7.00;99.90
52285;DHT22;38238;53.304;6.606;2022-11-14T03:50:45;7.00;99.90
52285;DHT22;38238;53.304;6.606;2022-11-14T03:53:11;7.00;99.90
52285;DHT22;38238;53.304;6.606;2022-11-14T03:55:36;7.00;99.90
52285;DHT22;38238;53.304;6.606;2022-11-14T03:58:03;7.30;99.90
52285;DHT22;38238;53.304;6.606;2022-11-14T04:00:29;7.00;99.90
52285;DHT22;38238;53.304;6.606;2022-11-14T04:02:55;7.00;99.90
52285;DHT22;38238;53.304;6.606;2022-11-14T04:05:21;7.00;99.90
52285;DHT22;38238;53.304;6.606;2022-11-14T04:07:47;7.00;99.90
52285;DHT22;38238;53.304;6.606;2022-11-14T04:10:13;7.00;99.90
52285;DHT22;38238;53.304;6.606;2022-11-14T04:12:38;7.00;99.90
52285;DHT22;38238;53.304;6.606;2022-11-14T04:15:04;7.00;99.90
52285;DHT22;38238;53.304;6.606;2022-11-14T04:17:30;7.00;99.90
52285;DHT22;38238;53.304;6.606;2022-11-14T04:19:56;7.00;99.90
52285;DHT22;38238;53.304;6.606;2022-11-14T04:22:21;7.30;99.90
52285;DHT22;38238;53.304;6.606;2022-11-14T04:24:47;7.00;99.90
52285;DHT22;38238;53.304;6.606;2022-11-14T04:27:13;5.60;99.90
52285;DHT22;38238;53.304;6.606;2022-11-14T04:29:38;7.00;99.90
52285;DHT22;38238;53.304;6.606;2022-11-14T04:32:04;6.90;99.90
52285;DHT22;38238;53.304;6.606;2022-11-14T04:34:30;6.90;99.90
52285;DHT22;38238;53.304;6.606;2022-11-14T04:36:55;7.00;99.90
52285;DHT22;38238;53.304;6.606;2022-11-14T04:39:21;7.00;99.90
52285;DHT22;38238;53.304;6.606;2022-11-14T04:41:47;7.00;99.90
52285;DHT22;38238;53.304;6.606;2022-11-14T04:44:12;7.00;99.90
52285;DHT22;38238;53.304;6.606;2022-11-14T04:46:38;7.00;99.90
52285;DHT22;38238;53.304;6.606;2022-11-14T04:49:04;7.00;99.90
52285;DHT22;38238;53.304;6.606;2022-11-14T04:51:29;7.00;99.90
52285;DHT22;38238;53.304;6.606;2022-11-14T04:53:55;7.00;99.90
52285;DHT22;38238;53.304;6.606;2022-11-14T04:56:21;6.90;99.90
52285;DHT22;38238;53.304;6.606;2022-11-14T04:58:48;7.00;99.90
52285;DHT22;38238;53.304;6.606;2022-11-14T05:01:14;6.90;99.90
52285;DHT22;38238;53.304;6.606;2022-11-14T05:03:40;6.90;99.90
52285;DHT22;38238;53.304;6.606;2022-11-14T05:06:06;6.90;99.90
52285;DHT22;38238;53.304;6.606;2022-11-14T05:08:33;6.90;99.90
52285;DHT22;38238;53.304;6.606;2022-11-14T05:10:58;6.90;99.90
52285;DHT22;38238;53.304;6.606;2022-11-14T05:13:24;6.90;99.90
52285;DHT22;38238;53.304;6.606;2022-11-14T05:15:50;7.00;99.90
52285;DHT22;38238;53.304;6.606;2022-11-14T05:18:16;6.90;99.90
52285;DHT22;38238;53.304;6.606;2022-11-14T05:20:41;6.90;99.90
52285;DHT22;38238;53.304;6.606;2022-11-14T05:23:17;7.20;99.90
52285;DHT22;38238;53.304;6.606;2022-11-14T05:25:43;6.90;99.90
52285;DHT22;38238;53.304;6.606;2022-11-14T05:28:09;6.90;99.90
52285;DHT22;38238;53.304;6.606;2022-11-14T05:30:35;6.80;99.90
52285;DHT22;38238;53.304;6.606;2022-11-14T05:33:00;6.80;99.90
52285;DHT22;38238;53.304;6.606;2022-11-14T05:35:26;7.50;99.90
52285;DHT22;38238;53.304;6.606;2022-11-14T05:37:52;6.80;99.90
52285;DHT22;38238;53.304;6.606;2022-11-14T05:40:17;6.70;99.90
52285;DHT22;38238;53.304;6.606;2022-11-14T05:42:43;6.90;99.90
52285;DHT22;38238;53.304;6.606;2022-11-14T05:45:09;7.10;99.90
52285;DHT22;38238;53.304;6.606;2022-11-14T05:47:35;6.60;99.90
52285;DHT22;38238;53.304;6.606;2022-11-14T05:50:01;6.60;99.90
52285;DHT22;38238;53.304;6.606;2022-11-14T05:52:27;6.70;99.90
52285;DHT22;38238;53.304;6.606;2022-11-14T05:54:53;6.60;99.90
52285;DHT22;38238;53.304;6.606;2022-11-14T05:57:18;6.60;99.90
52285;DHT22;38238;53.304;6.606;2022-11-14T05:59:44;6.60;99.90
52285;DHT22;38238;53.304;6.606;2022-11-14T06:02:10;6.60;99.90
52285;DHT22;38238;53.304;6.606;2022-11-14T06:04:35;7.00;99.90
52285;DHT22;38238;53.304;6.606;2022-11-14T06:07:01;6.60;99.90
52285;DHT22;38238;53.304;6.606;2022-11-14T06:09:27;6.50;99.90
52285;DHT22;38238;53.304;6.606;2022-11-14T06:11:52;6.50;99.90
52285;DHT22;38238;53.304;6.606;2022-11-14T06:14:18;6.50;99.90
52285;DHT22;38238;53.304;6.606;2022-11-14T06:16:44;6.50;99.90
52285;DHT22;38238;53.304;6.606;2022-11-14T06:19:10;6.50;99.90
52285;DHT22;38238;53.304;6.606;2022-11-14T06:21:35;7.20;99.90
52285;DHT22;38238;53.304;6.606;2022-11-14T06:24:01;6.70;99.90
52285;DHT22;38238;53.304;6.606;2022-11-14T06:26:29;6.40;99.90
52285;DHT22;38238;53.304;6.606;2022-11-14T06:28:55;6.40;99.90
52285;DHT22;38238;53.304;6.606;2022-11-14T06:31:22;6.40;99.90
52285;DHT22;38238;53.304;6.606;2022-11-14T06:33:48;6.40;99.90
52285;DHT22;38238;53.304;6.606;2022-11-14T06:36:15;6.40;99.90
52285;DHT22;38238;53.304;6.606;2022-11-14T06:38:41;6.40;99.90
52285;DHT22;38238;53.304;6.606;2022-11-14T06:41:09;6.40;99.90
52285;DHT22;38238;53.304;6.606;2022-11-14T06:43:37;6.40;99.90
52285;DHT22;38238;53.304;6.606;2022-11-14T06:46:04;6.40;99.90
52285;DHT22;38238;53.304;6.606;2022-11-14T06:48:30;6.40;99.90
52285;DHT22;38238;53.304;6.606;2022-11-14T06:50:57;6.40;99.90
52285;DHT22;38238;53.304;6.606;2022-11-14T06:53:24;6.40;99.90
52285;DHT22;38238;53.304;6.606;2022-11-14T06:56:03;6.40;99.90
52285;DHT22;38238;53.304;6.606;2022-11-14T06:58:34;6.40;99.90
52285;DHT22;38238;53.304;6.606;2022-11-14T07:01:04;6.40;99.90
52285;DHT22;38238;53.304;6.606;2022-11-14T07:03:31;6.40;99.90
52285;DHT22;38238;53.304;6.606;2022-11-14T07:06:01;6.40;99.90
52285;DHT22;38238;53.304;6.606;2022-11-14T07:08:27;6.40;99.90
52285;DHT22;38238;53.304;6.606;2022-11-14T07:10:53;6.40;99.90
52285;DHT22;38238;53.304;6.606;2022-11-14T07:13:18;6.70;99.90
52285;DHT22;38238;53.304;6.606;2022-11-14T07:15:51;6.40;99.90
52285;DHT22;38238;53.304;6.606;2022-11-14T07:18:17;7.50;99.90
52285;DHT22;38238;53.304;6.606;2022-11-14T07:20:43;6.40;99.90
52285;DHT22;38238;53.304;6.606;2022-11-14T07:23:08;6.40;99.90
52285;DHT22;38238;53.304;6.606;2022-11-14T07:25:34;6.40;99.90
52285;DHT22;38238;53.304;6.606;2022-11-14T07:28:00;6.40;99.90
52285;DHT22;38238;53.304;6.606;2022-11-14T07:30:25;6.50;99.90
52285;DHT22;38238;53.304;6.606;2022-11-14T07:32:58;6.40;99.90
52285;DHT22;38238;53.304;6.606;2022-11-14T07:35:24;6.40;99.90
52285;DHT22;38238;53.304;6.606;2022-11-14T07:37:50;6.90;99.90
52285;DHT22;38238;53.304;6.606;2022-11-14T07:40:17;6.40;99.90
52285;DHT22;38238;53.304;6.606;2022-11-14T07:42:42;6.80;99.90
52285;DHT22;38238;53.304;6.606;2022-11-14T07:45:09;6.40;99.90
52285;DHT22;38238;53.304;6.606;2022-11-14T07:47:35;6.40;99.90
52285;DHT22;38238;53.304;6.606;2022-11-14T07:50:01;6.70;99.90
52285;DHT22;38238;53.304;6.606;2022-11-14T07:52:26;6.40;99.90
52285;DHT22;38238;53.304;6.606;2022-11-14T07:54:52;6.40;99.90
52285;DHT22;38238;53.304;6.606;2022-11-14T07:57:18;6.40;99.90
52285;DHT22;38238;53.304;6.606;2022-11-14T07:59:44;6.40;99.90
52285;DHT22;38238;53.304;6.606;2022-11-14T08:02:13;6.40;99.90
52285;DHT22;38238;53.304;6.606;2022-11-14T08:04:40;6.40;99.90
52285;DHT22;38238;53.304;6.606;2022-11-14T08:07:06;6.60;99.90
52285;DHT22;38238;53.304;6.606;2022-11-14T08:09:31;6.40;99.90
52285;DHT22;38238;53.304;6.606;2022-11-14T08:11:57;6.40;99.90
52285;DHT22;38238;53.304;6.606;2022-11-14T08:14:23;6.40;99.90
52285;DHT22;38238;53.304;6.606;2022-11-14T08:16:49;6.40;99.90
52285;DHT22;38238;53.304;6.606;2022-11-14T08:19:15;6.40;99.90
52285;DHT22;38238;53.304;6.606;2022-11-14T08:21:42;6.80;99.90
52285;DHT22;38238;53.304;6.606;2022-11-14T08:24:08;6.40;99.90
52285;DHT22;38238;53.304;6.606;2022-11-14T08:26:34;6.40;99.90
52285;DHT22;38238;53.304;6.606;2022-11-14T08:28:59;6.40;99.90
52285;DHT22;38238;53.304;6.606;2022-11-14T08:31:25;6.80;99.90
52285;DHT22;38238;53.304;6.606;2022-11-14T08:33:51;6.50;99.90
52285;DHT22;38238;53.304;6.606;2022-11-14T08:36:17;6.50;99.90
52285;DHT22;38238;53.304;6.606;2022-11-14T08:38:43;6.60;99.90
52285;DHT22;38238;53.304;6.606;2022-11-14T08:41:10;6.60;99.90
52285;DHT22;38238;53.304;6.606;2022-11-14T08:43:35;6.70;99.90
52285;DHT22;38238;53.304;6.606;2022-11-14T08:46:03;6.60;99.90
52285;DHT22;38238;53.304;6.606;2022-11-14T08:48:30;6.70;99.90
52285;DHT22;38238;53.304;6.606;2022-11-14T08:50:56;6.70;99.90
52285;DHT22;38238;53.304;6.606;2022-11-14T08:53:22;7.00;99.90
52285;DHT22;38238;53.304;6.606;2022-11-14T08:55:48;6.80;99.90
52285;DHT22;38238;53.304;6.606;2022-11-14T08:58:14;6.80;99.90
52285;DHT22;38238;53.304;6.606;2022-11-14T09:00:40;7.20;99.90
52285;DHT22;38238;53.304;6.606;2022-11-14T09:03:10;6.90;99.90
52285;DHT22;38238;53.304;6.606;2022-11-14T09:05:37;7.20;99.90
52285;DHT22;38238;53.304;6.606;2022-11-14T09:08:03;6.80;99.90
52285;DHT22;38238;53.304;6.606;2022-11-14T09:10:29;6.90;99.90
52285;DHT22;38238;53.304;6.606;2022-11-14T09:12:59;6.90;99.90
52285;DHT22;38238;53.304;6.606;2022-11-14T09:15:27;6.90;99.90
52285;DHT22;38238;53.304;6.606;2022-11-14T09:17:53;6.80;99.90
52285;DHT22;38238;53.304;6.606;2022-11-14T09:20:20;6.80;99.90
52285;DHT22;38238;53.304;6.606;2022-11-14T09:22:46;6.90;99.90
52285;DHT22;38238;53.304;6.606;2022-11-14T09:25:11;6.90;99.90
52285;DHT22;38238;53.304;6.606;2022-11-14T09:27:37;6.90;99.90
52285;DHT22;38238;53.304;6.606;2022-11-14T09:30:04;6.90;99.90
52285;DHT22;38238;53.304;6.606;2022-11-14T09:32:30;6.90;99.90
52285;DHT22;38238;53.304;6.606;2022-11-14T09:34:55;7.00;99.90
52285;DHT22;38238;53.304;6.606;2022-11-14T09:37:21;6.90;99.90
52285;DHT22;38238;53.304;6.606;2022-11-14T09:39:47;7.00;99.90
52285;DHT22;38238;53.304;6.606;2022-11-14T09:45:15;7.00;99.90
52285;DHT22;38238;53.304;6.606;2022-11-14T09:47:47;7.00;99.90
52285;DHT22;38238;53.304;6.606;2022-11-14T09:52:41;7.00;99.90
52285;DHT22;38238;53.304;6.606;2022-11-14T09:55:11;7.10;99.90
52285;DHT22;38238;53.304;6.606;2022-11-14T09:57:41;7.20;99.90
52285;DHT22;38238;53.304;6.606;2022-11-14T10:00:46;7.10;99.90
52285;DHT22;38238;53.304;6.606;2022-11-14T10:12:10;7.20;99.90
52285;DHT22;38238;53.304;6.606;2022-11-14T10:14:57;7.30;99.90
52285;DHT22;38238;53.304;6.606;2022-11-14T10:17:44;7.30;99.90
52285;DHT22;38238;53.304;6.606;2022-11-14T10:25:50;7.40;99.90
52285;DHT22;38238;53.304;6.606;2022-11-14T10:31:15;7.40;99.90
52285;DHT22;38238;53.304;6.606;2022-11-14T10:41:52;7.70;99.90
52285;DHT22;38238;53.304;6.606;2022-11-14T10:44:24;7.70;99.90
52285;DHT22;38238;53.304;6.606;2022-11-14T10:46:55;7.70;99.90
52285;DHT22;38238;53.304;6.606;2022-11-14T10:49:24;7.80;99.90
52285;DHT22;38238;53.304;6.606;2022-11-14T10:51:53;7.90;99.90
52285;DHT22;38238;53.304;6.606;2022-11-14T10:54:30;7.90;99.90
52285;DHT22;38238;53.304;6.606;2022-11-14T10:56:57;7.90;99.90
52285;DHT22;38238;53.304;6.606;2022-11-14T10:59:22;7.80;99.90
52285;DHT22;38238;53.304;6.606;2022-11-14T11:07:37;7.80;99.90
52285;DHT22;38238;53.304;6.606;2022-11-14T11:10:03;8.10;99.90
52285;DHT22;38238;53.304;6.606;2022-11-14T11:12:50;8.30;99.90
52285;DHT22;38238;53.304;6.606;2022-11-14T11:15:22;8.40;99.90
52285;DHT22;38238;53.304;6.606;2022-11-14T11:18:21;8.90;99.90
52285;DHT22;38238;53.304;6.606;2022-11-14T11:21:10;9.90;99.90
52285;DHT22;38238;53.304;6.606;2022-11-14T11:23:51;10.70;99.90
52285;DHT22;38238;53.304;6.606;2022-11-14T11:26:27;11.00;99.90
52285;DHT22;38238;53.304;6.606;2022-11-14T11:31:51;10.70;99.90
52285;DHT22;38238;53.304;6.606;2022-11-14T11:34:30;10.20;99.90
52285;DHT22;38238;53.304;6.606;2022-11-14T11:37:20;9.80;99.90
52285;DHT22;38238;53.304;6.606;2022-11-14T11:39:57;9.70;99.90
52285;DHT22;38238;53.304;6.606;2022-11-14T11:44:58;10.60;99.90
52285;DHT22;38238;53.304;6.606;2022-11-14T11:47:25;11.00;99.90
52285;DHT22;38238;53.304;6.606;2022-11-14T11:49:53;11.40;99.90
52285;DHT22;38238;53.304;6.606;2022-11-14T11:52:33;11.40;99.90
52285;DHT22;38238;53.304;6.606;2022-11-14T11:55:41;11.40;99.90
52285;DHT22;38238;53.304;6.606;2022-11-14T12:00:33;12.00;99.90
52285;DHT22;38238;53.304;6.606;2022-11-14T12:03:00;12.20;99.90
52285;DHT22;38238;53.304;6.606;2022-11-14T12:10:52;11.00;99.90
52285;DHT22;38238;53.304;6.606;2022-11-14T12:16:05;10.80;99.90
52285;DHT22;38238;53.304;6.606;2022-11-14T12:30:18;11.10;99.90
52285;DHT22;38238;53.304;6.606;2022-11-14T12:32:56;11.80;99.90
52285;DHT22;38238;53.304;6.606;2022-11-14T12:35:29;12.30;99.90
52285;DHT22;38238;53.304;6.606;2022-11-14T12:37:57;12.70;99.90
52285;DHT22;38238;53.304;6.606;2022-11-14T12:42:54;12.90;99.90
52285;DHT22;38238;53.304;6.606;2022-11-14T12:48:34;12.80;99.90
52285;DHT22;38238;53.304;6.606;2022-11-14T12:51:02;12.50;99.90
52285;DHT22;38238;53.304;6.606;2022-11-14T13:02:16;10.40;99.90
52285;DHT22;38238;53.304;6.606;2022-11-14T13:04:30;10.20;99.90
52285;DHT22;38238;53.304;6.606;2022-11-14T13:10:02;9.80;99.90
52285;DHT22;38238;53.304;6.606;2022-11-14T13:12:34;9.70;99.90
52285;DHT22;38238;53.304;6.606;2022-11-14T13:15:35;9.60;99.90
52285;DHT22;38238;53.304;6.606;2022-11-14T13:18:32;9.60;99.90
52285;DHT22;38238;53.304;6.606;2022-11-14T13:21:23;9.60;99.90
52285;DHT22;38238;53.304;6.606;2022-11-14T13:24:09;9.60;99.90
52285;DHT22;38238;53.304;6.606;2022-11-14T13:26:36;9.60;99.90
52285;DHT22;38238;53.304;6.606;2022-11-14T13:29:02;9.60;99.90
52285;DHT22;38238;53.304;6.606;2022-11-14T13:39:33;9.70;99.90
52285;DHT22;38238;53.304;6.606;2022-11-14T13:50:59;9.80;99.90
52285;DHT22;38238;53.304;6.606;2022-11-14T13:53:28;9.80;99.90
52285;DHT22;38238;53.304;6.606;2022-11-14T14:01:21;9.70;99.90
52285;DHT22;38238;53.304;6.606;2022-11-14T14:04:16;9.70;99.90
52285;DHT22;38238;53.304;6.606;2022-11-14T14:06:56;9.70;99.90
52285;DHT22;38238;53.304;6.606;2022-11-14T14:15:11;8.10;99.90
52285;DHT22;38238;53.304;6.606;2022-11-14T14:17:54;9.60;99.90
52285;DHT22;38238;53.304;6.606;2022-11-14T14:25:54;9.70;99.90
52285;DHT22;38238;53.304;6.606;2022-11-14T14:38:44;9.70;99.90
52285;DHT22;38238;53.304;6.606;2022-11-14T14:41:12;9.70;99.90
52285;DHT22;38238;53.304;6.606;2022-11-14T14:43:48;9.60;99.90
52285;DHT22;38238;53.304;6.606;2022-11-14T14:46:14;9.60;99.90
52285;DHT22;38238;53.304;6.606;2022-11-14T14:48:41;9.40;99.90
52285;DHT22;38238;53.304;6.606;2022-11-14T14:51:12;9.40;99.90
52285;DHT22;38238;53.304;6.606;2022-11-14T14:53:38;9.30;99.90
52285;DHT22;38238;53.304;6.606;2022-11-14T14:56:16;9.30;99.90
52285;DHT22;38238;53.304;6.606;2022-11-14T14:58:41;9.20;99.90
52285;DHT22;38238;53.304;6.606;2022-11-14T15:01:11;9.00;99.90
52285;DHT22;38238;53.304;6.606;2022-11-14T15:03:40;9.00;99.90
52285;DHT22;38238;53.304;6.606;2022-11-14T15:06:24;8.90;99.90
52285;DHT22;38238;53.304;6.606;2022-11-14T15:09:06;8.80;99.90
52285;DHT22;38238;53.304;6.606;2022-11-14T15:11:35;8.70;99.90
52285;DHT22;38238;53.304;6.606;2022-11-14T15:14:01;8.80;99.90
52285;DHT22;38238;53.304;6.606;2022-11-14T15:16:28;8.50;99.90
52285;DHT22;38238;53.304;6.606;2022-11-14T15:18:55;8.50;99.90
52285;DHT22;38238;53.304;6.606;2022-11-14T15:21:28;8.40;99.90
52285;DHT22;38238;53.304;6.606;2022-11-14T15:24:14;8.40;99.90
52285;DHT22;38238;53.304;6.606;2022-11-14T15:26:43;8.40;99.90
52285;DHT22;38238;53.304;6.606;2022-11-14T15:29:20;8.30;99.90
52285;DHT22;38238;53.304;6.606;2022-11-14T15:32:05;8.20;99.90
52285;DHT22;38238;53.304;6.606;2022-11-14T15:34:33;8.30;99.90
52285;DHT22;38238;53.304;6.606;2022-11-14T15:39:40;8.10;99.90
52285;DHT22;38238;53.304;6.606;2022-11-14T15:44:38;8.00;99.90
52285;DHT22;38238;53.304;6.606;2022-11-14T15:52:38;7.90;99.90
52285;DHT22;38238;53.304;6.606;2022-11-14T15:55:16;7.80;99.90
52285;DHT22;38238;53.304;6.606;2022-11-14T15:57:42;7.80;99.90
52285;DHT22;38238;53.304;6.606;2022-11-14T16:00:12;8.10;99.90
52285;DHT22;38238;53.304;6.606;2022-11-14T16:02:52;7.70;99.90
52285;DHT22;38238;53.304;6.606;2022-11-14T16:05:25;7.70;99.90
52285;DHT22;38238;53.304;6.606;2022-11-14T16:07:52;7.60;99.90
52285;DHT22;38238;53.304;6.606;2022-11-14T16:10:20;7.70;99.90
52285;DHT22;38238;53.304;6.606;2022-11-14T16:12:46;7.50;99.90
52285;DHT22;38238;53.304;6.606;2022-11-14T16:15:12;7.50;99.90
52285;DHT22;38238;53.304;6.606;2022-11-14T16:17:40;7.50;99.90
52285;DHT22;38238;53.304;6.606;2022-11-14T16:20:23;7.50;99.90
52285;DHT22;38238;53.304;6.606;2022-11-14T16:22:50;7.60;99.90
52285;DHT22;38238;53.304;6.606;2022-11-14T16:27:47;7.60;99.90
52285;DHT22;38238;53.304;6.606;2022-11-14T16:30:15;7.60;99.90
52285;DHT22;38238;53.304;6.606;2022-11-14T16:32:42;7.60;99.90
52285;DHT22;38238;53.304;6.606;2022-11-14T16:35:17;7.60;99.90
52285;DHT22;38238;53.304;6.606;2022-11-14T16:37:43;7.60;99.90
52285;DHT22;38238;53.304;6.606;2022-11-14T16:40:17;7.60;99.90
52285;DHT22;38238;53.304;6.606;2022-11-14T16:42:44;7.60;99.90
52285;DHT22;38238;53.304;6.606;2022-11-14T16:45:10;7.60;99.90
52285;DHT22;38238;53.304;6.606;2022-11-14T16:47:36;7.90;99.90
52285;DHT22;38238;53.304;6.606;2022-11-14T16:50:02;7.70;99.90
52285;DHT22;38238;53.304;6.606;2022-11-14T16:52:28;7.70;99.90
52285;DHT22;38238;53.304;6.606;2022-11-14T16:54:54;7.80;99.90
52285;DHT22;38238;53.304;6.606;2022-11-14T16:57:19;7.80;99.90
52285;DHT22;38238;53.304;6.606;2022-11-14T16:59:45;7.80;99.90
52285;DHT22;38238;53.304;6.606;2022-11-14T17:02:14;7.80;99.90
52285;DHT22;38238;53.304;6.606;2022-11-14T17:04:41;7.80;99.90
52285;DHT22;38238;53.304;6.606;2022-11-14T17:07:10;7.90;99.90
52285;DHT22;38238;53.304;6.606;2022-11-14T17:09:39;7.90;99.90
52285;DHT22;38238;53.304;6.606;2022-11-14T17:12:05;7.90;99.90
52285;DHT22;38238;53.304;6.606;2022-11-14T17:14:31;7.90;99.90
52285;DHT22;38238;53.304;6.606;2022-11-14T17:16:57;7.90;99.90
52285;DHT22;38238;53.304;6.606;2022-11-14T17:19:22;8.00;99.90
52285;DHT22;38238;53.304;6.606;2022-11-14T17:21:48;7.90;99.90
52285;DHT22;38238;53.304;6.606;2022-11-14T17:24:14;7.90;99.90
52285;DHT22;38238;53.304;6.606;2022-11-14T17:26:40;7.90;99.90
52285;DHT22;38238;53.304;6.606;2022-11-14T17:29:06;8.50;99.90
52285;DHT22;38238;53.304;6.606;2022-11-14T17:31:33;8.00;99.90
52285;DHT22;38238;53.304;6.606;2022-11-14T17:33:59;7.90;99.90
52285;DHT22;38238;53.304;6.606;2022-11-14T17:36:27;7.90;99.90
52285;DHT22;38238;53.304;6.606;2022-11-14T17:38:54;7.90;99.90
52285;DHT22;38238;53.304;6.606;2022-11-14T17:41:20;7.90;99.90
52285;DHT22;38238;53.304;6.606;2022-11-14T17:43:50;7.90;99.90
52285;DHT22;38238;53.304;6.606;2022-11-14T17:46:15;7.90;99.90
52285;DHT22;38238;53.304;6.606;2022-11-14T17:48:45;7.90;99.90
52285;DHT22;38238;53.304;6.606;2022-11-14T17:51:12;7.90;99.90
52285;DHT22;38238;53.304;6.606;2022-11-14T17:53:39;7.90;99.90
52285;DHT22;38238;53.304;6.606;2022-11-14T17:56:16;8.20;99.90
52285;DHT22;38238;53.304;6.606;2022-11-14T17:58:42;7.80;99.90
52285;DHT22;38238;53.304;6.606;2022-11-14T18:01:13;7.80;99.90
52285;DHT22;38238;53.304;6.606;2022-11-14T18:03:40;7.70;99.90
52285;DHT22;38238;53.304;6.606;2022-11-14T18:06:11;7.60;99.90
52285;DHT22;38238;53.304;6.606;2022-11-14T18:08:40;7.60;99.90
52285;DHT22;38238;53.304;6.606;2022-11-14T18:11:08;7.50;99.90
52285;DHT22;38238;53.304;6.606;2022-11-14T18:13:34;7.40;99.90
52285;DHT22;38238;53.304;6.606;2022-11-14T18:16:20;7.40;99.90
52285;DHT22;38238;53.304;6.606;2022-11-14T18:18:47;7.30;99.90